Tiempo atmosférico en la estación meteorológica de Antequera, Málaga (400 m.)



Fecha
DESCASC
Temp. máxima en grados centígrados (hora)
DESCASC
Temp. mínima en grados centígrados (hora)
DESCASC
Temp. media en grados centígrados
DESCASC
Racha de viento máxima en m/sg (hora)
DESCASC
Velocidad máxima media en intervalos de 10 minutos(hora)
DESCASC
Precipitaciones diarias en mm
DESCASC
Precipitaciones de 00:00 a 06:00 en mm
DESCASC
Precipitaciones de 06:00 a 12:00 en mm
DESCASC
Precipitaciones de 12:00 a 18:00 en mm
DESCASC
Precipitaciones de 18:00 a 24:00 en mm
DESCASC
15-08-2019 35.1 (16:20) 18.9 (07:50) 27 9.17 (20:30) 5 (19:20) 0 0 0 0 0
14-08-2019 33 (18:10) 22.1 (00:00) 27.6 10.28 (14:30) 5 (11:50) 0 0 0 0 0
13-08-2019 31.9 (15:20) 20.3 (00:00) 26.1 10.83 (11:00) 5.83 (19:50) 0 0 0 0 0
12-08-2019 31.8 (19:00) 14.4 (00:00) 23.1 7.5 (18:10) 3.33 (14:50) 0 0 0 0 0
11-08-2019 31.9 (18:20) 17.7 (00:00) 24.8 8.61 (15:10) 3.89 (19:50) 0 0 0 0 0
10-08-2019 35.2 (18:50) 19.3 (00:00) 27.3 6.39 (21:30) 3.33 (20:20) 0 0 0 0 0
09-08-2019 34.4 (17:30) 17.7 (00:00) 26.1 7.5 (15:40) 3.61 (19:40) 0 0 0 0 0
08-08-2019 37.4 (18:30) 18.3 (00:00) 27.9 7.22 (18:20) 3.33 (19:40) 0 0 0 0 0
07-08-2019 33.6 (18:20) 17.2 (00:00) 25.4 6.39 (18:10) 2.5 (18:20) 0 0 0 0 0
06-08-2019 37.9 (17:20) 17.8 (00:00) 27.9 7.5 (19:40) 3.89 (19:40) 0 0 0 0 0
05-08-2019 36.6 (16:20) 18.9 (00:00) 27.7 7.22 (18:10) 3.33 (21:20) 0 0 0 0 0
04-08-2019 35.9 (18:00) 19.3 (00:00) 27.6 6.94 (18:50) 2.78 (18:50) 0 0 0 0 0
03-08-2019 34.2 (16:20) 19.2 (00:00) 26.7 8.61 (12:40) 3.89 (12:40) 0 0 0 0 0
02-08-2019 35.9 (16:30) 18.5 (00:00) 27.2 7.22 (16:50) 2.78 (18:50) 0 0 0 0 0
01-08-2019 34.3 (18:40) 21.1 (00:00) 27.7 6.67 (17:40) 2.5 (19:50) 0 0 0 0 0
31-07-2019 29.5 (14:10) 20.9 (00:00) 25.2 11.39 (19:10) 5.83 (20:20) 0 0 0 0 0
30-07-2019 35.6 (18:30) 17 (00:00) 26.3 10 (13:00) 3.33 (20:10) 0 0 0 0 0
29-07-2019 33.2 (18:10) 17.4 (00:00) 25.3 7.5 (15:40) 2.78 (16:30) 0 0 0 0 0
28-07-2019 31.6 (17:00) 18.6 (00:00) 25.1 7.5 (15:10) 3.61 (19:40) 0 0 0 0 0
27-07-2019 27.1 (14:40) 17.1 (00:00) 22.1 10.56 (16:30) 4.72 (18:00) 0 0 0 0 0
26-07-2019 31.2 (15:20) 18.4 (00:00) 24.8 10.83 (17:30) 4.72 (18:00) 0 0 0 0 0
25-07-2019 34.6 (16:00) 21.2 (00:00) 27.9 10.83 (15:00) 5.28 (14:30) 0 0 0 0 0
24-07-2019 34.8 (16:20) 19.5 (00:00) 27.1 11.39 (19:20) 5.83 (19:20) 0 0 0 0 0
23-07-2019 34.9 (15:20) 22.5 (00:00) 28.7 13.89 (16:20) 7.78 (16:20) 0 0 0 0 0
22-07-2019 33 (15:20) 21.7 (00:00) 27.4 11.39 (13:20) 5.83 (13:20) 0 0 0 0 0
21-07-2019 35.4 (16:20) 21.4 (00:00) 28.4 10.83 (22:10) 6.11 (22:30) 0 0 0 0 0
20-07-2019 37.7 (18:50) 22.3 (00:00) 30 7.5 (22:30) 3.33 (22:30) 0 0 0 0 0
19-07-2019 32.1 (17:10) 20.5 (00:00) 26.3 12.22 (15:40) 6.39 (15:30) 0 0 0 0 0

Gráficas

Temp. máximas Temp. mínimas Temp. medias Precipitaciones Rachas de viento máximas Velocidades máximas media en intervalos de 10 minutos

Datos horarios

Fecha y hora oficial Temperatura (ºC) Velocidad del viento (km/h) Dirección del viento Racha (km/h) Dirección de racha Precipitación (mm) Presión (hPa) Tendencia (hPa) Humedad (%)
2019-08-17 23:00:00 28.2 0 Calma 8 Oeste 0 966.4 1.1 37
2019-08-17 22:00:00 29.7 0 Calma 14 Sur 0 965.8 0.3 33
2019-08-17 21:00:00 31.3 3 Sur 22 Sur 0 965.3 -0.4 32
2019-08-17 20:00:00 33 11 Sur 32 Sur 0 965.3 -0.6 31
2019-08-17 19:00:00 34 15 Sur 41 Sudeste 0 965.5 -0.9 30
2019-08-17 18:00:00 34.8 21 Sur 42 Sur 0 965.7 -1.5 29
2019-08-17 17:00:00 35.7 22 Sur 42 Sur 0 965.9 -1.6 29
2019-08-17 16:00:00 36.2 17 Sudeste 33 Sudeste 0 966.4 -1.5 29
2019-08-17 15:00:00 35.6 10 Sur 31 Sudeste 0 967.2 -1.3 32
2019-08-17 14:00:00 35.5 11 Sudeste 27 Sur 0 967.5 -1.2 31
2019-08-17 13:00:00 34.9 10 Sudeste 25 Sudeste 0 967.9 -0.8 32
2019-08-17 12:00:00 31.9 0 Calma 3 Sur 0 968.5 -0.3 38
2019-08-17 11:00:00 27.7 0 Calma 4 Sudeste 0 968.7 0.1 44
2019-08-17 10:00:00 24 0 Calma 0 Calma 0 968.7 0.4 52
2019-08-17 09:00:00 21.3 0 Calma 4 Este 0 968.8 0.5 55
2019-08-17 08:00:00 18.7 0 Calma 0 Calma 0 968.6 0.3 60
2019-08-17 07:00:00 19.2 0 Calma 2 Este 0 968.3 -0.3 58
2019-08-17 06:00:00 20.2 0 Calma -- -- 0 968.3 -0.5 56
2019-08-17 05:00:00 21.2 0 Calma 4 Nordeste 0 968.3 -0.8 56
2019-08-17 04:00:00 22.3 0 Calma 6 Nordeste 0 968.6 -0.5 53
2019-08-17 03:00:00 24.1 0 Calma 6 Oeste 0 968.8 -0.2 50
2019-08-17 02:00:00 24.8 0 Calma 8 Oeste 0 969.1 -0.1 50
2019-08-17 01:00:00 25.3 4 Noroeste 8 Noroeste 0 969.1 0.5 49
2019-08-17 00:00:00 26.1 0 Calma 6 Sudoeste 0 969 1.2 45
2019-08-16 23:00:00 27.4 0 Calma 7 Este 0 969.2 1.8 41
2019-08-16 22:00:00 28.7 0 Calma 13 Sur 0 968.6 1.1 39
2019-08-16 21:00:00 30.6 6 Sur 22 Sudeste 0 967.8 0.2 33
2019-08-16 20:00:00 32.9 13 Sudeste 28 Sudeste 0 967.4 -0.8 31
2019-08-16 19:00:00 33.5 14 Sudeste 31 Sudeste 0 967.5 -1.3 31
2019-08-16 18:00:00 34.5 17 Sudeste 30 Sudeste 0 967.6 -1.5 29
2019-08-16 17:00:00 34.6 17 Sudeste 30 Sudeste 0 968.2 -1.3 29
2019-08-16 16:00:00 34.7 15 Sudeste 30 Sudeste 0 968.8 -1 31
2019-08-16 15:00:00 34.1 15 Sudeste 28 Sudeste 0 969.1 -1 31
2019-08-16 14:00:00 33.3 14 Sudeste 27 Sudeste 0 969.5 -0.3 33
2019-08-16 13:00:00 33.4 14 Sudeste 29 Sudeste 0 969.8 -0.2 33
2019-08-16 12:00:00 32.2 13 Sudeste 30 Sudeste 0 970.1 0.3 36
2019-08-16 11:00:00 30.5 4 Sudeste 15 Sudeste 0 969.8 0.2 41
2019-08-16 10:00:00 26.4 0 Calma 7 Oeste 0 970 0.9 49
2019-08-16 09:00:00 22.3 0 Calma 4 Noroeste 0 969.8 0.6 55
2019-08-16 08:00:00 20.4 0 Calma 0 Calma 0 969.6 0.3 55
2019-08-16 07:00:00 20.9 0 Calma 7 Nordeste 0 969.1 -0.3 53
2019-08-16 06:00:00 21.4 0 Calma 4 Este 0 969.2 -0.5 51
2019-08-16 05:00:00 23.3 0 Calma 6 Noroeste 0 969.3 -0.5 47
2019-08-16 04:00:00 24.4 2 Oeste 8 Noroeste 0 969.4 -0.7 46
2019-08-16 03:00:00 24.5 2 Oeste 8 Sudoeste 0 969.7 -0.3 46
2019-08-16 02:00:00 24.9 0 Calma 6 Sudoeste 0 969.8 0 45
2019-08-16 01:00:00 25.3 0 Calma 4 Sur 0 970.1 1.1 44
2019-08-16 00:00:00 26.1 0 Calma 4 Sudoeste 0 970 1.6 43
2019-08-15 23:00:00 27.1 0 Calma 14 Sudoeste 0 969.8 1.6 40
2019-08-15 22:00:00 28.4 4 Sur 20 Sur 0 969 0.9 37
2019-08-15 21:00:00 29.9 6 Sur 33 Sur 0 968.4 0.1 34
2019-08-15 20:00:00 31.7 12 Sur 31 Sudeste 0 968.2 -0.4 33
2019-08-15 19:00:00 33.3 12 Sudeste 30 Sudeste 0 968.1 -0.8 33
2019-08-15 18:00:00 34.1 8 Sur 24 Sur 0 968.3 -1 31
2019-08-15 17:00:00 34.3 5 Sur 25 Sur 0 968.6 -0.9 32
2019-08-15 16:00:00 34.3 6 Sur 26 Sudeste 0 968.9 -1.3 31
2019-08-15 15:00:00 34.1 9 Sudeste 26 Sudeste 0 969.3 -1.1 32
2019-08-15 14:00:00 33.8 8 Sudeste 26 Sur 0 969.5 -0.8 34
2019-08-15 13:00:00 32.3 12 Sur 28 Sur 0 970.2 -0.3 35
2019-08-15 12:00:00 31.5 13 Sudeste 26 Sudeste 0 970.4 0.2 35
2019-08-15 11:00:00 27.1 0 Calma 3 Oeste 0 970.3 0.2 55
2019-08-15 10:00:00 24.1 0 Calma 3 Este 0 970.5 0.7 66
2019-08-15 09:00:00 21.7 0 Calma 2 Este 0 970.2 0.6 68
2019-08-15 08:00:00 19.4 0 Calma 2 Este 0 970.1 0.3 78
2019-08-15 07:00:00 20.3 0 Calma 4 Nordeste 0 969.8 0.1 75
2019-08-15 06:00:00 21 0 Calma 0 Calma 0 969.6 -0.5 76
2019-08-15 05:00:00 22.1 0 Calma 6 Oeste 0 969.8 -0.4 73
2019-08-15 04:00:00 22.8 0 Calma 4 Oeste 0 969.7 -0.6 69
2019-08-15 03:00:00 23.3 0 Calma 6 Noroeste 0 970.1 0 64
2019-08-15 02:00:00 24.2 3 Oeste 10 Oeste 0 970.2 0.3 60
2019-08-15 01:00:00 24.9 0 Calma 12 Sudoeste 0 970.3 0.9 58
2019-08-15 00:00:00 25.3 0 Calma 13 Sur 0 970.1 1 54
2019-08-14 23:00:00 26.7 3 Sudoeste 18 Sur 0 969.9 1.2 49
2019-08-14 22:00:00 27.7 5 Sur 18 Sur 0 969.4 0.6 47
2019-08-14 21:00:00 29 5 Sur 24 Sudeste 0 969.1 0.1 46
2019-08-14 20:00:00 30.7 11 Sudeste 26 Sudeste 0 968.7 -0.7 43
2019-08-14 19:00:00 32 10 Sudeste 26 Este 0 968.8 -1.1 38
2019-08-14 18:00:00 32.9 9 Sudeste 28 Sur 0 969 -1.5 38
2019-08-14 17:00:00 31.8 7 Sur 27 Sudeste 0 969.4 -1.8 41
2019-08-14 16:00:00 31.4 14 Sudeste 29 Sudeste 0 969.9 -1.7 46
2019-08-14 15:00:00 30.7 12 Sudeste 37 Sudeste 0 970.5 -1.1 50
2019-08-14 14:00:00 29.5 13 Sudeste 31 Sudeste 0 971.2 -0.3 54
2019-08-14 13:00:00 28.5 13 Sudeste 31 Sudeste 0 971.6 0.1 60
2019-08-14 12:00:00 27.3 15 Sudeste 32 Sudeste 0 971.6 0.2 66
2019-08-14 11:00:00 25.8 15 Sur 31 Sur 0 971.5 0.6 71
2019-08-14 10:00:00 24.9 12 Sudeste 29 Sudeste 0 971.5 1 74
2019-08-14 09:00:00 23.3 14 Sudeste 26 Sudeste 0 971.4 0.8 82
2019-08-14 08:00:00 22.5 3 Sur 21 Sur 0 970.9 0.4 81
2019-08-14 07:00:00 22.5 10 Sur 23 Sudeste 0 970.5 -0.3 85
2019-08-14 06:00:00 22.4 6 Sur 18 Sur 0 970.6 -0.3 85
2019-08-14 05:00:00 22.3 5 Sur 22 Sudeste 0 970.5 -0.4 87
2019-08-14 04:00:00 22.4 11 Sur 22 Sur 0 970.8 -0.1 87
2019-08-14 03:00:00 22.7 8 Sur 29 Sudeste 0 970.9 0.4 85
2019-08-14 02:00:00 22.8 13 Sur 29 Sur 0 970.9 0.8 83
2019-08-14 01:00:00 23.3 10 Sur 23 Sudeste 0 970.9 1.4 80
2019-08-14 00:00:00 23.8 3 Sur 22 Sur 0 970.5 1.9 78
2019-08-13 23:00:00 24 9 Sur 23 Sudeste 0 970.1 1.8 76
2019-08-13 22:00:00 25 10 Sur 28 Sur 0 969.5 1.3 72
2019-08-13 21:00:00 26.1 15 Sudeste 36 Sudeste 0 968.6 0.4 64
2019-08-13 20:00:00 27.6 20 Sudeste 39 Sur 0 968.3 0.1 58
2019-08-13 19:00:00 28.8 18 Sudeste 35 Sur 0 968.2 -0.7 56
2019-08-13 18:00:00 30.2 17 Sudeste 34 Sudeste 0 968.2 -1.1 52
2019-08-13 17:00:00 30.9 9 Sur 24 Sur 0 968.2 -1.4 47
2019-08-13 16:00:00 30.9 0 Calma 26 Sur 0 968.9 -0.8 44
2019-08-13 15:00:00 30.8 0 Calma 18 Sur 0 969.3 -0.3 42
2019-08-13 14:00:00 29.7 5 Sur 30 Sudeste 0 969.6 0 50
2019-08-13 13:00:00 28.8 12 Sur 33 Sudeste 0 969.7 0.5 55
2019-08-13 12:00:00 27.4 17 Sudeste 36 Sur 0 969.6 0.4 62
2019-08-13 11:00:00 26 15 Sur 39 Sudeste 0 969.6 0.9 68
2019-08-13 10:00:00 24.7 14 Sudeste 37 Sur 0 969.2 1.2 73
2019-08-13 09:00:00 23.5 11 Sur 30 Sudeste 0 969.2 1.3 77
2019-08-13 08:00:00 21.4 0 Calma 13 Sudeste 0 968.7 0.5 80
2019-08-13 07:00:00 20.8 0 Calma 7 Sur 0 968 -0.2 74
2019-08-13 06:00:00 20.8 0 Calma 6 Sudeste 0 967.9 -0.4 67
2019-08-13 05:00:00 21.4 0 Calma 5 Sudoeste 0 968.2 -0.4 58
2019-08-13 04:00:00 22.4 0 Calma 6 Noroeste 0 968.2 -0.6 50
2019-08-13 03:00:00 22.9 0 Calma 6 Oeste 0 968.3 -0.1 43
2019-08-13 02:00:00 22.7 0 Calma 7 Oeste 0 968.6 0.5 36
2019-08-13 01:00:00 22.5 0 Calma 7 Noroeste 0 968.8 1.4 33
2019-08-13 00:00:00 23.4 4 Noroeste 8 Noroeste 0 968.4 1.7 31
2019-08-12 23:00:00 24.3 0 Calma 4 Noroeste 0 968.1 2 29
2019-08-12 22:00:00 26.2 0 Calma 8 Norte 0 967.4 1.5 28
2019-08-12 21:00:00 28.4 2 Noroeste 13 Noroeste 0 966.7 0.6 27
2019-08-12 20:00:00 30.7 6 Noroeste 20 Noroeste 0 966.1 -0.5 25
2019-08-12 19:00:00 31.5 5 Noroeste 27 Noroeste 0 965.9 -1.2 24
2019-08-12 18:00:00 31.3 9 Noroeste 24 Noroeste 0 966.1 -1.7 26
2019-08-12 17:00:00 30.7 8 Noroeste 26 Noroeste 0 966.6 -1.8 27
2019-08-12 16:00:00 30.5 8 Noroeste 26 Noroeste 0 967.1 -1.7 30
2019-08-12 15:00:00 29.6 5 Norte 25 Noroeste 0 967.8 -0.9 32
2019-08-12 14:00:00 29 6 Norte 22 Noroeste 0 968.4 -0.5 34
2019-08-12 13:00:00 27.2 3 Norte 20 Nordeste 0 968.8 0.2 37
2019-08-12 12:00:00 25.5 8 Nordeste 21 Nordeste 0 968.7 0.3 39
2019-08-12 11:00:00 22.8 3 Este 9 Este 0 968.9 0.9 45
2019-08-12 10:00:00 19.4 2 Nordeste 6 Este 0 968.6 0.7 49
2019-08-12 09:00:00 17.2 0 Calma 4 Oeste 0 968.4 0.4 52
2019-08-12 08:00:00 14.9 0 Calma 2 Este 0 968 0 54
2019-08-12 07:00:00 15.2 0 Calma 4 Norte 0 967.9 -0.4 53
2019-08-12 06:00:00 16.6 0 Calma 5 Este 0 968 -0.9 50
2019-08-12 05:00:00 18.7 0 Calma 5 Nordeste 0 968 -1.3 48
2019-08-12 04:00:00 18.8 0 Calma 10 Noroeste 0 968.3 -1 47
2019-08-12 03:00:00 19.9 0 Calma 9 Noroeste 0 968.9 -0.3 46
2019-08-12 02:00:00 20.9 3 Noroeste 8 Oeste 0 969.3 0.3 46
2019-08-12 01:00:00 22.7 4 Noroeste 15 Oeste 0 969.3 1.2 45
2019-08-12 00:00:00 23.6 2 Noroeste 10 Noroeste 0 969.2 1.4 40
2019-08-11 23:00:00 24.7 3 Noroeste 9 Noroeste 0 969 1.7 37
2019-08-11 22:00:00 25.5 0 Calma 9 Noroeste 0 968.1 0.7 36
2019-08-11 21:00:00 27.6 3 Noroeste 23 Noroeste 0 967.8 0.3 33
2019-08-11 20:00:00 29.7 13 Noroeste 30 Noroeste 0 967.3 -0.9 31
2019-08-11 19:00:00 31.1 11 Noroeste 30 Oeste 0 967.4 -1.1 29
2019-08-11 18:00:00 31 5 Noroeste 28 Noroeste 0 967.5 -1.6 31
2019-08-11 17:00:00 30.8 10 Noroeste 26 Noroeste 0 968.2 -1.4 32
2019-08-11 16:00:00 29.5 7 Noroeste 31 Oeste 0 968.5 -1.3 33
2019-08-11 15:00:00 30.2 8 Noroeste 27 Oeste 0 969.1 -0.7 33
2019-08-11 14:00:00 28.9 9 Noroeste 24 Oeste 0 969.6 0 38
2019-08-11 13:00:00 27.7 7 Noroeste 19 Noroeste 0 969.8 0.3 44
2019-08-11 12:00:00 27.2 0 Calma 17 Noroeste 0 969.8 0.5 46
2019-08-11 11:00:00 24.3 9 Noroeste 19 Noroeste 0 969.6 0.5 52
2019-08-11 10:00:00 23.2 3 Noroeste 13 Noroeste 0 969.5 0.3 55
2019-08-11 09:00:00 20.6 2 Nordeste 7 Norte 0 969.3 0.4 58
2019-08-11 08:00:00 18.3 0 Calma 5 Noroeste 0 969.1 0.2 62
2019-08-11 07:00:00 18.8 0 Calma 6 Este 0 969.2 0.6 58
2019-08-11 06:00:00 19.4 0 Calma 8 Este 0 968.9 0.2 57
2019-08-11 05:00:00 20.5 0 Calma 4 Sudeste 0 968.9 -0.1 55
2019-08-11 04:00:00 22.2 0 Calma 9 Noroeste 0 968.6 -0.5 52
2019-08-11 03:00:00 23.2 0 Calma 7 Noroeste 0 968.7 -0.2 56
2019-08-11 02:00:00 24 0 Calma 3 Sudeste 0 969 0.1 56
2019-08-11 01:00:00 25.1 0 Calma 16 Oeste 0 969.1 1.1 55
2019-08-11 00:00:00 26 4 Noroeste 12 Noroeste 0 968.9 1.6 55
2019-08-10 23:00:00 27.4 7 Noroeste 21 Oeste 0 968.9 2.1 52
2019-08-10 22:00:00 29.4 9 Oeste 23 Oeste 0 968 0.8 51
2019-08-10 21:00:00 31.5 11 Noroeste 21 Noroeste 0 967.3 -0.2 44
2019-08-10 20:00:00 33.9 9 Oeste 19 Noroeste 0 966.8 -1.3 40
2019-08-10 19:00:00 34.2 8 Noroeste 18 Noroeste 0 967.2 -1.9 40
2019-08-10 18:00:00 34.2 2 Oeste 15 Noroeste 0 967.5 -2.3 40
2019-08-10 17:00:00 34.7 5 Noroeste 19 Noroeste 0 968.1 -2.4 41
2019-08-10 16:00:00 33.2 6 Noroeste 20 Noroeste 0 969.1 -1.4 43
2019-08-10 15:00:00 31.9 4 Noroeste 16 Noroeste 0 969.8 -1.3 49
2019-08-10 14:00:00 31 5 Noroeste 22 Noroeste 0 970.5 -0.6 52
2019-08-10 13:00:00 29.4 3 Noroeste 20 Noroeste 0 970.5 -0.6 58
2019-08-10 12:00:00 27.7 3 Nordeste 12 Nordeste 0 971.1 0.3 66
2019-08-10 11:00:00 25.3 3 Este 12 Este 0 971.1 0.6 73
2019-08-10 10:00:00 24.1 4 Este 10 Nordeste 0 971.1 0.8 75
2019-08-10 09:00:00 21.6 5 Nordeste 9 Nordeste 0 970.8 0.6 76
2019-08-10 08:00:00 21 0 Calma 8 Nordeste 0 970.5 0.3 82
2019-08-10 07:00:00 21 0 Calma 4 Nordeste 0 970.3 -0.3 82
2019-08-10 06:00:00 21.1 0 Calma 11 Noroeste 0 970.2 -0.3 75
2019-08-10 05:00:00 22.1 0 Calma 4 Oeste 0 970.2 -0.5 74
2019-08-10 04:00:00 21.7 0 Calma 5 Nordeste 0 970.6 0 68
2019-08-10 03:00:00 22.6 0 Calma 6 Nordeste 0 970.5 0.5 67
2019-08-10 02:00:00 23.6 2 Nordeste 6 Noroeste 0 970.7 1.1 64
2019-08-10 01:00:00 24 2 Noroeste 8 Noroeste 0 970.6 1.7 57
2019-08-10 00:00:00 26.1 3 Noroeste 10 Noroeste 0 970 1.7 48
2019-08-09 23:00:00 26.8 0 Calma 8 Noroeste 0 969.6 1.6 43
2019-08-09 22:00:00 28.5 2 Noroeste 13 Oeste 0 968.9 1.1 40
2019-08-09 21:00:00 30.4 8 Noroeste 19 Noroeste 0 968.3 0.5 39
2019-08-09 20:00:00 31.9 11 Noroeste 27 Noroeste 0 968 -0.3 39
2019-08-09 19:00:00 33.4 10 Noroeste 26 Noroeste 0 967.8 -1 39
2019-08-09 18:00:00 34.2 9 Oeste 25 Oeste 0 967.8 -1.6 38
2019-08-09 17:00:00 33.7 6 Oeste 23 Noroeste 0 968.3 -1.7 39
2019-08-09 16:00:00 32.6 5 Noroeste 27 Noroeste 0 968.8 -1.1 41
2019-08-09 15:00:00 32.4 5 Noroeste 23 Noroeste 0 969.4 -0.4 43
2019-08-09 14:00:00 31.3 7 Noroeste 21 Noroeste 0 970 0.5 43
2019-08-09 13:00:00 30.7 4 Noroeste 22 Oeste 0 969.9 0.1 45
2019-08-09 12:00:00 29.6 2 Norte 13 Nordeste 0 969.8 0.4 50
2019-08-09 11:00:00 27.3 3 Norte 11 Nordeste 0 969.5 0.2 51
2019-08-09 10:00:00 23.4 0 Calma 4 Oeste 0 969.8 0.8 54
2019-08-09 09:00:00 20.5 0 Calma 6 Noroeste 0 969.4 0.7 59
2019-08-09 08:00:00 18 0 Calma 3 Noroeste 0 969.3 0.3 64
2019-08-09 07:00:00 18.6 0 Calma 3 Noroeste 0 969 -0.1 61
2019-08-09 06:00:00 19.4 0 Calma 9 Nordeste 0 968.7 -0.2 60
2019-08-09 05:00:00 20.3 0 Calma 10 Noroeste 0 969 0.4 58
2019-08-09 04:00:00 21.3 2 Norte 12 Noroeste 0 969.1 1 57
2019-08-09 03:00:00 22.5 0 Calma 12 Noroeste 0 968.9 1.4 55
2019-08-09 02:00:00 23.2 9 Noroeste 17 Noroeste 0 968.6 1.4 52
2019-08-09 01:00:00 25.2 8 Noroeste 14 Noroeste 0 968.1 1.9 50
2019-08-09 00:00:00 26.8 0 Calma 12 Noroeste 0 967.5 1.7 47
2019-08-08 23:00:00 28.6 6 Noroeste 13 Noroeste 0 967.2 1.8 43
2019-08-08 22:00:00 30.1 0 Calma 14 Oeste 0 966.2 0.7 37
2019-08-08 21:00:00 32.9 5 Oeste 19 Noroeste 0 965.8 0.2 33
2019-08-08 20:00:00 35.2 9 Noroeste 21 Noroeste 0 965.4 -0.2 31
2019-08-08 19:00:00 37.2 8 Oeste 26 Noroeste 0 965.5 -0.6 28
2019-08-08 18:00:00 36.4 7 Noroeste 23 Noroeste 0 965.6 -0.9 31
2019-08-08 17:00:00 36.6 5 Oeste 23 Oeste 0 965.6 -1.4 32
2019-08-08 16:00:00 35.7 7 Oeste 19 Oeste 0 966.1 -1.3 32
2019-08-08 15:00:00 34.4 0 Calma 17 Noroeste 0 966.5 -1.4 35
2019-08-08 14:00:00 32.7 3 Oeste 12 Nordeste 0 967 -0.9 39
2019-08-08 13:00:00 31.1 4 Este 15 Este 0 967.4 -0.4 44
2019-08-08 12:00:00 29.5 3 Nordeste 12 Este 0 967.9 0.3 49
2019-08-08 11:00:00 26.9 0 Calma 8 Nordeste 0 967.9 0.7 55
2019-08-08 10:00:00 23.1 0 Calma 6 Este 0 967.8 0.6 57
2019-08-08 09:00:00 20.1 0 Calma 8 Noroeste 0 967.6 0.4 62
2019-08-08 08:00:00 18.4 0 Calma 6 Norte 0 967.2 0.2 64
2019-08-08 07:00:00 18.7 0 Calma 5 Oeste 0 967.2 0.1 63
2019-08-08 06:00:00 19.9 0 Calma 5 Este 0 967.2 -0.1 62
2019-08-08 05:00:00 20.6 2 Nordeste 8 Nordeste 0 967 -0.8 60
2019-08-08 04:00:00 22.2 0 Calma 5 Nordeste 0 967.1 -0.4 58
2019-08-08 03:00:00 22.8 0 Calma 4 Noroeste 0 967.3 0 55
2019-08-08 02:00:00 24.5 0 Calma 5 Noroeste 0 967.8 1 52
2019-08-08 01:00:00 24.5 0 Calma 8 Oeste 0 967.5 1.3 45
2019-08-08 00:00:00 26.3 2 Oeste 13 Noroeste 0 967.3 1.8 43
2019-08-07 23:00:00 27.7 4 Noroeste 15 Noroeste 0 966.8 1.5 40
2019-08-07 22:00:00 28.8 5 Noroeste 10 Noroeste 0 966.2 0.6 39
2019-08-07 21:00:00 30.3 4 Noroeste 18 Noroeste 0 965.5 -0.3 38
2019-08-07 20:00:00 31.7 6 Noroeste 21 Noroeste 0 965.3 -0.3 35
2019-08-07 19:00:00 32.6 4 Nordeste 23 Noroeste 0 965.6 -0.2 35
2019-08-07 18:00:00 32.6 8 Noroeste 21 Noroeste 0 965.8 -0.5 37
2019-08-07 17:00:00 32.7 4 Noroeste 21 Noroeste 0 965.6 -1 36
2019-08-07 16:00:00 32.5 3 Norte 16 Norte 0 965.8 -0.9 37
2019-08-07 15:00:00 32.5 3 Norte 22 Noroeste 0 966.3 -0.6 37
2019-08-07 14:00:00 31.8 6 Nordeste -- -- -- 966.6 -0.2 36
2019-08-07 13:00:00 31.2 3 Noroeste 21 Noroeste 0 966.7 0 38
2019-08-07 12:00:00 29.2 5 Este 13 Este 0 966.9 0.6 35
2019-08-07 11:00:00 25.9 0 Calma 8 Este 0 966.8 1 39
2019-08-07 10:00:00 22.4 0 Calma 5 Este 0 966.7 1 44
2019-08-07 09:00:00 19.8 0 Calma 5 Nordeste 0 966.3 0.8 46
2019-08-07 08:00:00 17.9 0 Calma 5 Nordeste 0 965.8 0.4 47
2019-08-07 07:00:00 18.2 0 Calma 5 Nordeste 0 965.7 0.1 46
2019-08-07 06:00:00 17.7 0 Calma 5 Sudeste 0 965.5 0.2 46
2019-08-07 05:00:00 19.7 0 Calma 4 Noroeste 0 965.4 -0.4 45
2019-08-07 04:00:00 21 0 Calma 9 Nordeste 0 965.6 -0.4 43
2019-08-07 03:00:00 22.9 3 Nordeste 12 Nordeste 0 965.3 -0.6 40
2019-08-07 02:00:00 24.1 0 Calma 5 Nordeste 0 965.8 0.3 38
2019-08-07 01:00:00 24.9 0 Calma 7 Noroeste 0 966 1.3 38
2019-08-07 00:00:00 26.7 0 Calma 5 Noroeste 0 965.9 2 37
2019-08-06 23:00:00 28.1 0 Calma 11 Noroeste 0 965.5 2.1 35
2019-08-06 22:00:00 29.8 5 Noroeste 16 Noroeste 0 964.7 1.3 32
2019-08-06 21:00:00 32.3 7 Noroeste 21 Noroeste 0 963.9 0.3 29
2019-08-06 20:00:00 34.6 11 Noroeste 27 Noroeste 0 963.4 -0.6 27
2019-08-06 19:00:00 36.5 9 Noroeste 24 Noroeste 0 963.4 -1.3 26
2019-08-06 18:00:00 36.9 9 Noroeste 26 Noroeste 0 963.6 -1.9 26
2019-08-06 17:00:00 36.4 2 Oeste 17 Noroeste 0 964 -2.1 27
2019-08-06 16:00:00 36.1 6 Oeste 19 Noroeste 0 964.7 -2 29
2019-08-06 15:00:00 35.4 0 Calma 18 Noroeste 0 965.5 -1.5 31
2019-08-06 14:00:00 34.3 0 Calma 15 Noroeste 0 966.1 -1 31
2019-08-06 13:00:00 32.2 2 Oeste 13 Noroeste 0 966.7 -0.3 34
2019-08-06 12:00:00 30.7 4 Noroeste 13 Oeste 0 967 0.1 34
2019-08-06 11:00:00 27.9 0 Calma 8 Noroeste 0 967.1 0.4 41
2019-08-06 10:00:00 23.8 0 Calma 3 Sudeste 0 967 0 48
2019-08-06 09:00:00 20.9 0 Calma 7 Oeste 0 966.9 -0.1 52
2019-08-06 08:00:00 18.2 0 Calma 10 Este 0 966.7 -0.3 55
2019-08-06 07:00:00 18.8 0 Calma 6 Norte 0 967 0 52
2019-08-06 06:00:00 20.7 0 Calma 8 Nordeste 0 967 0 49
2019-08-06 05:00:00 20 0 Calma 7 Noroeste 0 967 -0.3 50
2019-08-06 04:00:00 22.2 0 Calma 3 Nordeste 0 967 -0.1 47
2019-08-06 03:00:00 23.7 0 Calma 5 Noroeste 0 967 -0.2 45
2019-08-06 02:00:00 24.7 0 Calma 5 Noroeste 0 967.3 0.6 44
2019-08-06 01:00:00 26.2 0 Calma 4 Noroeste 0 967.1 1.2 42
2019-08-06 00:00:00 27 0 Calma 9 Sur 0 967.2 2.6 40
2019-08-05 23:00:00 28.3 0 Calma 12 Oeste 0 966.7 2.1 37
2019-08-05 22:00:00 30 4 Oeste 24 Noroeste 0 965.9 1.3 35
2019-08-05 21:00:00 32.7 7 Noroeste 20 Noroeste 0 964.6 0.1 36
2019-08-05 20:00:00 34.9 9 Oeste 22 Oeste 0 964.6 -0.1 34
2019-08-05 19:00:00 36.3 3 Oeste 26 Noroeste 0 964.6 -0.5 34
2019-08-05 18:00:00 35.3 6 Este 23 Nordeste 0 964.5 -0.8 37
2019-08-05 17:00:00 35.7 0 Calma 24 Oeste 0 964.7 -1.1 37
2019-08-05 16:00:00 35.5 8 Oeste 22 Noroeste 0 965.1 -1.5 34
2019-08-05 15:00:00 34.9 4 Noroeste 20 Oeste 0 965.3 -1.7 35
2019-08-05 14:00:00 35.1 0 Calma 14 Oeste 0 965.8 -1.4 35
2019-08-05 13:00:00 33.1 0 Calma 14 Noroeste 0 966.6 -0.7 35
2019-08-05 12:00:00 31.8 0 Calma 12 Norte 0 967 -0.2 38
2019-08-05 11:00:00 29.3 0 Calma 2 Sudeste 0 967.2 -0.1 45
2019-08-05 10:00:00 25.7 0 Calma 3 Sudoeste 0 967.3 0.3 50
2019-08-05 09:00:00 22.3 0 Calma 3 Sudeste 0 967.2 0.2 55
2019-08-05 08:00:00 19.3 0 Calma 4 Noroeste 0 967.3 0 59
2019-08-05 07:00:00 20.2 0 Calma 3 Noroeste 0 967 -0.5 56
2019-08-05 06:00:00 21 0 Calma 9 Nordeste 0 967 -0.5 53
2019-08-05 05:00:00 22.5 5 Nordeste 9 Nordeste 0 967.3 -0.6 52
2019-08-05 04:00:00 22.7 0 Calma 5 Nordeste 0 967.5 -0.1 51
2019-08-05 03:00:00 23.1 0 Calma 4 Este 0 967.5 -0.1 49
2019-08-05 02:00:00 24.2 0 Calma 12 Noroeste 0 967.9 0.7 46
2019-08-05 01:00:00 26.3 0 Calma 11 Noroeste 0 967.6 1.2 43
2019-08-05 00:00:00 27.5 3 Oeste 9 Oeste 0 967.6 1.7 41
2019-08-04 23:00:00 28.1 0 Calma 10 Oeste 0 967.2 1.8 40
2019-08-04 22:00:00 30.1 4 Oeste 17 Noroeste 0 966.4 0.9 38
2019-08-04 21:00:00 32.3 10 Noroeste 19 Noroeste 0 965.9 0.5 37
2019-08-04 20:00:00 34.7 6 Noroeste 22 Noroeste 0 965.4 -0.1 34
2019-08-04 19:00:00 35 6 Noroeste 25 Oeste 0 965.5 -0.4 33
2019-08-04 18:00:00 35.1 6 Oeste 20 Noroeste 0 965.4 -0.9 33
2019-08-04 17:00:00 35 6 Oeste 22 Noroeste 0 965.5 -1.3 33
2019-08-04 16:00:00 34.7 5 Noroeste 18 Noroeste 0 965.9 -1.5 34
2019-08-04 15:00:00 33.3 3 Noroeste 16 Noroeste 0 966.3 -1.3 37
2019-08-04 14:00:00 32.2 5 Noroeste 20 Noroeste 0 966.8 -1 38
2019-08-04 13:00:00 31.6 3 Noroeste 20 Noroeste 0 967.4 -0.6 40
2019-08-04 12:00:00 30.2 3 Noroeste 18 Oeste 0 967.6 -0.5 44
2019-08-04 11:00:00 27.4 0 Calma 8 Sudeste 0 967.8 0.1 51
2019-08-04 10:00:00 24.6 0 Calma 8 Sudeste 0 968 0.6 53
2019-08-04 09:00:00 22.2 0 Calma 0 Calma 0 968.1 0.8 61
2019-08-04 08:00:00 20 0 Calma 2 Noroeste 0 967.7 0.3 73
2019-08-04 07:00:00 19.7 0 Calma 2 Nordeste 0 967.4 -0.2 76
2019-08-04 06:00:00 21.3 0 Calma 6 Nordeste 0 967.3 -0.2 74
2019-08-04 05:00:00 22.1 0 Calma 3 Sudoeste 0 967.4 -0.2 73
2019-08-04 04:00:00 22.6 0 Calma 7 Oeste 0 967.6 0.2 69
2019-08-04 03:00:00 23.2 0 Calma 6 Sur 0 967.5 0.4 62
2019-08-04 02:00:00 24.2 0 Calma 8 Sudoeste 0 967.6 0.5 49
2019-08-04 01:00:00 24.4 0 Calma 7 Oeste 0 967.4 1.3 45
2019-08-04 00:00:00 25.9 2 Noroeste 11 Oeste 0 967.1 1.9 43
2019-08-03 23:00:00 27 4 Noroeste 11 Noroeste 0 967.1 2.2 42
2019-08-03 22:00:00 29 3 Oeste 15 Noroeste 0 966.1 1.1 41
2019-08-03 21:00:00 31.1 0 Calma 22 Oeste 0 965.2 0.1 48
2019-08-03 20:00:00 32.5 4 Sur 21 Sudeste 0 964.9 -0.7 46
2019-08-03 19:00:00 32.9 11 Sudeste 26 Sudeste 0 965 -1 45
2019-08-03 18:00:00 33.5 12 Sudeste 27 Sudeste 0 965.1 -1.4 44
2019-08-03 17:00:00 33.8 4 Sur 17 Sudeste 0 965.6 -1.4 42
2019-08-03 16:00:00 33 3 Sudeste 18 Sudoeste 0 966 -1.3 44
2019-08-03 15:00:00 32.5 3 Sur 27 Sudeste 0 966.5 -0.9 47
2019-08-03 14:00:00 31.5 9 Sudeste 30 Sur 0 967 -0.4 51
2019-08-03 13:00:00 30.3 12 Sudeste 31 Sudeste 0 967.3 -0.1 54
2019-08-03 12:00:00 29.1 12 Sudeste 26 Sudeste 0 967.4 -0.1 56
2019-08-03 11:00:00 28 7 Sudeste 24 Sur 0 967.4 0.3 61
2019-08-03 10:00:00 24.1 0 Calma 6 Sur 0 967.4 0.6 70
2019-08-03 09:00:00 21.9 0 Calma 2 Nordeste 0 967.5 1 73
2019-08-03 08:00:00 20 0 Calma 3 Nordeste 0 967.1 0.5 78
2019-08-03 07:00:00 20.2 0 Calma 0 Calma 0 966.8 0.2 79
2019-08-03 06:00:00 20.9 0 Calma 3 Sudoeste 0 966.5 -0.4 79
2019-08-03 05:00:00 21.8 0 Calma 5 Oeste 0 966.6 -0.5 77
2019-08-03 04:00:00 22.6 0 Calma 7 Oeste 0 966.6 -0.7 72
2019-08-03 03:00:00 23.3 0 Calma 9 Sudoeste 0 966.9 -0.3 67
2019-08-03 02:00:00 24.2 0 Calma 9 Sudoeste 0 967.1 0.3 63
2019-08-03 01:00:00 25.2 0 Calma 4 Sur 0 967.3 1.2 54
2019-08-03 00:00:00 26.2 0 Calma 4 Sur 0 967.2 1.7 38
2019-08-02 23:00:00 27.5 0 Calma 7 Oeste 0 966.8 1.7 37
2019-08-02 22:00:00 29.6 3 Oeste 19 Noroeste 0 966.1 0.9 36
2019-08-02 21:00:00 32.4 9 Oeste 20 Oeste 0 965.5 0.1 33
2019-08-02 20:00:00 34 5 Sudeste 21 Sudeste 0 965.1 -0.5 34
2019-08-02 19:00:00 34.5 9 Sudeste 24 Sur 0 965.2 -1 34
2019-08-02 18:00:00 35.5 4 Sur 19 Sur 0 965.4 -0.9 33
2019-08-02 17:00:00 35.1 8 Sudeste 26 Sudeste 0 965.6 -1.2 33
2019-08-02 16:00:00 35.1 5 Nordeste 16 Nordeste 0 966.2 -0.8 29
2019-08-02 15:00:00 34.1 6 Oeste 15 Oeste 0 966.3 -1 33
2019-08-02 14:00:00 33 0 Calma 16 Noroeste 0 966.8 -0.7 34
2019-08-02 13:00:00 31.7 3 Oeste 12 Nordeste 0 967 -0.3 38
2019-08-02 12:00:00 30.1 0 Calma 11 Noroeste 0 967.3 0 40
2019-08-02 11:00:00 27.7 0 Calma 10 Noroeste 0 967.5 0.7 46
2019-08-02 10:00:00 24.8 0 Calma 2 Este 0 967.3 0.4 61
2019-08-02 09:00:00 21.2 0 Calma 4 Sudeste 0 967.3 0.6 64
2019-08-02 08:00:00 18.9 0 Calma 2 Nordeste 0 966.8 0.1 72
2019-08-02 07:00:00 19.6 0 Calma 4 Oeste 0 966.9 0.3 69
2019-08-02 06:00:00 20.6 0 Calma 6 Oeste 0 966.7 0.1 67
2019-08-02 05:00:00 21.8 0 Calma 6 Noroeste 0 966.7 -0.1 58
2019-08-02 04:00:00 22.6 0 Calma 5 Sudeste 0 966.6 -0.3 55
2019-08-02 03:00:00 24.1 0 Calma 6 Oeste 0 966.6 0 52
2019-08-02 02:00:00 25.1 0 Calma 8 Oeste 0 966.8 0.8 51
2019-08-02 01:00:00 25.9 0 Calma 8 Oeste 0 966.9 1.7 52
2019-08-02 00:00:00 27 0 Calma 4 Sudoeste 0 966.6 1.8 51
2019-08-01 23:00:00 28.1 0 Calma 8 Oeste 0 966 2 49
2019-08-01 22:00:00 30 0 Calma 14 Noroeste 0 965.2 1.4 45
2019-08-01 21:00:00 31.8 3 Noroeste 18 Noroeste 0 964.8 0.8 43
2019-08-01 20:00:00 33 7 Noroeste 19 Noroeste 0 964 -0.3 43
2019-08-01 19:00:00 33.9 8 Noroeste 19 Noroeste 0 963.8 -0.8 43
2019-08-01 18:00:00 33.7 5 Noroeste 24 Nordeste 0 964 -1.1 43
2019-08-01 17:00:00 33.7 4 Oeste 14 Sur 0 964.3 -1.4 43
2019-08-01 16:00:00 32.5 4 Sur 17 Sur 0 964.6 -1.5 45
2019-08-01 15:00:00 31.7 5 Sur 19 Este 0 965.1 -1.2 47
2019-08-01 14:00:00 30.5 0 Calma 13 Sur 0 965.7 -0.4 50
2019-08-01 13:00:00 29.8 2 Este 14 Sudeste 0 966.1 -0.1 52
2019-08-01 12:00:00 28 0 Calma 9 Sudeste 0 966.3 0.2 57
2019-08-01 11:00:00 26.4 0 Calma 9 Sudeste 0 966.1 0.5 63
2019-08-01 10:00:00 24.9 0 Calma 6 Noroeste 0 966.2 0.6 68
2019-08-01 09:00:00 23.2 2 Este 7 Este 0 966.1 0.4 74
2019-08-01 08:00:00 21.7 0 Calma 8 Sur 0 965.6 -0.1 81
2019-08-01 07:00:00 21.3 0 Calma 5 Sur 0 965.6 -0.4 82
2019-08-01 06:00:00 21.5 0 Calma 9 Sudoeste 0 965.7 -0.3 81
2019-08-01 05:00:00 21.6 0 Calma 7 Sudeste 0 965.7 -0.4 81
2019-08-01 04:00:00 21.9 4 Sur 18 Sudeste 0 966 0 80
2019-08-01 03:00:00 22.3 0 Calma 8 Sur 0 966 0.2 79
2019-08-01 02:00:00 22.2 0 Calma 9 Sudeste 0 966.1 0.1 79
2019-08-01 01:00:00 22.2 0 Calma 9 Sur 0 966 0.7 79
2019-08-01 00:00:00 22.5 2 Sur 18 Sudeste 0 965.8 0.9 76
2019-07-31 23:00:00 23 3 Sur 32 Sur 0 966 1.8 75
2019-07-31 22:00:00 23.7 9 Sur 32 Sur 0 965.3 1.4 72
2019-07-31 21:00:00 24.5 14 Sur 41 Sur 0 964.9 1 68
2019-07-31 20:00:00 26.4 10 Sudeste 41 Sur 0 964.2 -0.1 63
2019-07-31 19:00:00 26.9 12 Sur 39 Sur 0 963.9 -1.1 59
2019-07-31 18:00:00 28.3 17 Sur 37 Sudeste 0 963.9 -1.4 53
2019-07-31 17:00:00 28.8 10 Sur 33 Sur 0 964.3 -1.1 51
2019-07-31 16:00:00 28.9 16 Sur 40 Sur 0 965 -0.9 51
2019-07-31 15:00:00 28.3 10 Sur 36 Sudeste 0 965.3 -1 52
2019-07-31 14:00:00 28.8 14 Sur 28 Sudeste 0 965.4 -1 52
2019-07-31 13:00:00 27.5 14 Sudeste 31 Sudeste 0 965.9 -0.3 58
2019-07-31 12:00:00 26.7 14 Sudeste 35 Sudeste 0 966.3 0.5 60
2019-07-31 11:00:00 25.2 14 Sudeste 40 Sur 0 966.4 0.7 64
2019-07-31 10:00:00 24 15 Sudeste 41 Sudeste 0 966.2 1 65
2019-07-31 09:00:00 23.9 8 Sudeste 25 Sudeste 0 965.8 1.1 65
2019-07-31 08:00:00 22.4 9 Sudeste 23 Sudeste 0 965.7 1 70
2019-07-31 07:00:00 22.2 0 Calma 19 Sudeste 0 965.2 0.6 67
2019-07-31 06:00:00 21.3 0 Calma 11 Noroeste 0 964.7 -0.6 74
2019-07-31 05:00:00 21.5 4 Oeste 16 Oeste 0 964.7 -0.5 75
2019-07-31 04:00:00 23.2 2 Sudoeste 29 Sur 0 964.6 -1.1 63
2019-07-31 03:00:00 23.6 9 Sur 24 Oeste 0 965.3 -0.6 60
2019-07-31 02:00:00 24.7 4 Sudoeste 27 Sur 0 965.2 0 50
2019-07-31 01:00:00 25.4 16 Sur 33 Sur 0 965.7 1.5 46
2019-07-31 00:00:00 26.3 2 Sur 10 Sur 0 965.9 2.2 40
2019-07-30 23:00:00 27.4 0 Calma 6 Sudoeste 0 965.2 1.9 38
2019-07-30 22:00:00 29.5 0 Calma 15 Sur 0 964.2 0.9 33
2019-07-30 21:00:00 31.2 10 Sur 22 Sudeste 0 963.7 0.1 29
2019-07-30 20:00:00 33.4 10 Sudeste 22 Sudeste 0 963.3 -0.7 29
2019-07-30 19:00:00 34.8 3 Sur 18 Oeste 0 963.3 -1.2 28
2019-07-30 18:00:00 34.9 3 Noroeste 18 Noroeste 0 963.6 -1.6 29
2019-07-30 17:00:00 34.3 3 Norte 17 Noroeste 0 964 -1.8 31
2019-07-30 16:00:00 33.5 2 Oeste 19 Sudoeste 0 964.5 -1.7 32
2019-07-30 15:00:00 32.5 2 Norte 16 Noroeste 0 965.2 -1.3 34
2019-07-30 14:00:00 31.1 6 Noroeste 18 Noroeste 0 965.8 -0.8 38
2019-07-30 13:00:00 29.3 7 Noroeste 36 Noroeste 0 966.2 -0.7 41
2019-07-30 12:00:00 27.5 3 Noroeste 13 Noroeste 0 966.5 -0.4 45
2019-07-30 11:00:00 26 0 Calma 8 Norte 0 966.6 0 47
2019-07-30 10:00:00 22.4 0 Calma 4 Este 0 966.9 0.5 55
2019-07-30 09:00:00 20.7 0 Calma 0 Calma 0 966.9 0.8 63
2019-07-30 08:00:00 17.3 0 Calma 7 Nordeste 0 966.6 0.5 68
2019-07-30 07:00:00 17.3 0 Calma 3 Este 0 966.4 0.3 67
2019-07-30 06:00:00 18.5 0 Calma 6 Noroeste 0 966.1 0 64
2019-07-30 05:00:00 19.8 0 Calma 0 Calma 0 966.1 -0.1 62
2019-07-30 04:00:00 20.6 0 Calma 3 Noroeste 0 966.1 0.1 59
2019-07-30 03:00:00 22.6 0 Calma 5 Noroeste 0 966.1 0.4 56
2019-07-30 02:00:00 22.9 0 Calma 0 Calma 0 966.2 0.7 53
2019-07-30 01:00:00 24.6 0 Calma 9 Sudoeste 0 966 1.5 51
2019-07-30 00:00:00 25 0 Calma 10 Oeste 0 965.7 1.6 49
2019-07-29 23:00:00 26.1 5 Oeste 11 Oeste 0 965.5 1.6 41
2019-07-29 22:00:00 28 4 Oeste 15 Noroeste 0 964.5 0.6 37
2019-07-29 21:00:00 30.5 9 Oeste 22 Noroeste 0 964.1 0 36
2019-07-29 20:00:00 32.2 7 Noroeste 24 Noroeste 0 963.9 -0.4 35
2019-07-29 19:00:00 32.5 10 Noroeste 26 Noroeste 0 963.9 -0.7 34
2019-07-29 18:00:00 33.1 3 Noroeste 22 Noroeste 0 964.1 -1 35
2019-07-29 17:00:00 32.2 3 Norte 22 Oeste 0 964.3 -1 37
2019-07-29 16:00:00 31.3 4 Norte 27 Nordeste 0 964.6 -1.1 39
2019-07-29 15:00:00 30.8 4 Norte 20 Oeste 0 965.1 -0.6 41
2019-07-29 14:00:00 29.9 3 Nordeste 15 Este 0 965.3 -0.5 45
2019-07-29 13:00:00 28 4 Noroeste 16 Noroeste 0 965.7 -0.1 50
2019-07-29 12:00:00 26.5 6 Noroeste 17 Noroeste 0 965.7 0.2 56
2019-07-29 11:00:00 25.1 2 Noroeste 14 Este 0 965.8 0.7 59
2019-07-29 10:00:00 23.3 2 Este 10 Este 0 965.8 1.1 65
2019-07-29 09:00:00 20.4 0 Calma 4 Noroeste 0 965.5 1 73
2019-07-29 08:00:00 18.1 0 Calma 2 Este 0 965.1 0.9 81
2019-07-29 07:00:00 17.6 0 Calma 11 Noroeste 0 964.7 0.3 81
2019-07-29 06:00:00 18.2 0 Calma 10 Norte 0 964.5 -0.1 79
2019-07-29 05:00:00 19.7 2 Nordeste 8 Nordeste 0 964.2 -0.3 75
2019-07-29 04:00:00 20 5 Nordeste 8 Nordeste 0 964.4 0.3 74
2019-07-29 03:00:00 20.6 0 Calma 4 Nordeste 0 964.6 0.5 72
2019-07-29 02:00:00 21.6 0 Calma 13 Noroeste 0 964.5 0.5 69
2019-07-29 01:00:00 22.6 6 Noroeste 14 Noroeste 0 964.1 1 64
2019-07-29 00:00:00 23.7 0 Calma 8 Sudoeste 0 964.1 1.6 61
2019-07-28 23:00:00 24.8 0 Calma 12 Oeste 0 964 2.1 54
2019-07-28 22:00:00 26.5 7 Oeste 19 Oeste 0 963.1 1.6 49
2019-07-28 21:00:00 28.3 8 Oeste 21 Noroeste 0 962.5 1 44
2019-07-28 20:00:00 29.8 10 Noroeste 24 Oeste 0 961.9 0.1 43
2019-07-28 19:00:00 30.8 9 Noroeste 21 Noroeste 0 961.5 -0.6 42
2019-07-28 18:00:00 30.2 6 Sudeste 23 Sudeste 0 961.5 -0.9 40
2019-07-28 17:00:00 30.5 8 Sur 26 Sur 0 961.8 -1.1 40
2019-07-28 16:00:00 30.6 9 Sur 27 Oeste 0 962.1 -1.4 41
2019-07-28 15:00:00 28.5 2 Noroeste 17 Noroeste 0 962.4 -1.5 50
2019-07-28 14:00:00 27.3 0 Calma 14 Sudoeste 0 962.9 -1.2 55
2019-07-28 13:00:00 25.6 3 Oeste 13 Oeste 0 963.5 -0.9 61
2019-07-28 12:00:00 23.6 2 Noroeste 15 Nordeste 0 963.9 -0.4 67
2019-07-28 11:00:00 22.4 0 Calma 17 Nordeste 0 964.1 0 73
2019-07-28 10:00:00 21.1 4 Noroeste 15 Noroeste 0 964.4 0.4 78
2019-07-28 09:00:00 20.1 0 Calma 10 Noroeste 0 964.3 0.6 82
2019-07-28 08:00:00 19.3 0 Calma 12 Noroeste 0 964.1 0.2 85
2019-07-28 07:00:00 18.9 0 Calma 5 Norte 0 964 0 85
2019-07-28 06:00:00 19 4 Noroeste 10 Noroeste 0 963.7 -0.6 85
2019-07-28 05:00:00 19.8 0 Calma 7 Noroeste 0 963.9 -1 85
2019-07-28 04:00:00 19.2 5 Noroeste 10 Noroeste 0 964 -0.9 87
2019-07-28 03:00:00 19.7 0 Calma 8 Noroeste 0 964.3 -0.6 85
2019-07-28 02:00:00 20 0 Calma 11 Noroeste 0 964.9 0.2 85
2019-07-28 01:00:00 20 2 Noroeste 12 Noroeste 0 964.9 0.6 84
2019-07-28 00:00:00 20.7 2 Noroeste 11 Noroeste 0 964.9 1.2 80
2019-07-27 23:00:00 21.3 4 Oeste 13 Noroeste 0 964.7 1.1 76
2019-07-26 12:00:00 26.2 3 Noroeste 18 Noroeste 0 967.1 0.1 58
2019-07-26 11:00:00 24.8 3 Noroeste 16 Noroeste 0 967.2 0.4 62
2019-07-26 10:00:00 23.8 2 Norte 13 Noroeste 0 967.2 0.4 62
2019-07-26 09:00:00 21.8 0 Calma 3 Este 0 967 0.2 62
2019-07-26 08:00:00 19.4 0 Calma 5 Oeste 0 966.8 0.1 67
2019-07-26 07:00:00 19.8 0 Calma 11 Nordeste 0 966.8 0.1 64
2019-07-26 06:00:00 21 0 Calma 15 Nordeste 0 966.8 -0.1 63
2019-07-26 05:00:00 20.9 0 Calma 5 Norte 0 966.7 -0.5 60
2019-07-26 04:00:00 21.2 0 Calma 9 Noroeste 0 966.7 -0.7 59
2019-07-26 03:00:00 22 0 Calma 6 Noroeste 0 966.9 0 57
2019-07-26 02:00:00 23.5 5 Noroeste 8 Noroeste 0 967.2 0.2 55
2019-07-26 01:00:00 24.5 5 Oeste 12 Oeste 0 967.4 1.1 52
2019-07-26 00:00:00 25.7 0 Calma 6 Oeste 0 966.9 1.4 51
2019-07-25 23:00:00 27.1 0 Calma 20 Sudoeste 0 967 2 49
2019-07-25 22:00:00 28.4 10 Oeste 22 Noroeste 0 966.3 1.2 50
2019-07-25 21:00:00 31.6 0 Calma 19 Sur 0 965.5 0.1 38
2019-07-25 20:00:00 32.4 10 Sudeste 26 Sudeste 0 965 -0.6 35
2019-07-25 19:00:00 33.2 13 Sudeste 30 Sudeste 0 965.1 -0.8 34
2019-07-25 18:00:00 33.8 13 Sudeste 36 Este 0 965.4 -0.9 34
2019-07-25 17:00:00 33.6 18 Sudeste 33 Sudeste 0 965.6 -1.1 34
2019-07-25 16:00:00 34.1 13 Sudeste 35 Sudeste 0 965.9 -1.1 34
2019-07-25 15:00:00 33.7 14 Sur 39 Sur 0 966.3 -0.6 34
2019-07-25 14:00:00 33.2 16 Sudeste 33 Sudeste 0 966.7 -0.4 35
2019-07-25 13:00:00 32.3 10 Sur 32 Sur 0 967 -0.2 38
2019-07-25 12:00:00 31.7 9 Sudeste 30 Sur 0 966.9 -0.4 40
2019-07-25 11:00:00 29.2 4 Este 16 Este 0 967.1 0 50
2019-07-25 10:00:00 26.4 6 Nordeste 12 Nordeste 0 967.2 0.3 61
2019-07-25 09:00:00 24.1 0 Calma 9 Nordeste 0 967.3 0.8 65
2019-07-25 08:00:00 22 4 Nordeste 10 Nordeste 0 967.1 0.3 73
2019-07-25 07:00:00 21.6 7 Nordeste 12 Este 0 966.9 0.3 69
2019-07-25 06:00:00 22.6 9 Nordeste 14 Este 0 966.5 -0.3 63
2019-07-25 05:00:00 23.4 8 Este 16 Sudeste 0 966.8 -0.2 56
2019-07-25 04:00:00 24.9 0 Calma 11 Noroeste 0 966.6 -0.3 51
2019-07-25 03:00:00 25.4 5 Noroeste 13 Noroeste 0 966.8 -0.2 50
2019-07-25 02:00:00 25.9 0 Calma 8 Noroeste 0 967 0.5 49
2019-07-25 01:00:00 26.2 4 Noroeste 18 Oeste 0 966.9 1.1 47
2019-07-25 00:00:00 26.9 4 Nordeste 19 Sur 0 967 1.7 45
2019-07-24 23:00:00 28.6 7 Sur 24 Sur 0 966.5 1.5 41
2019-07-24 22:00:00 29.4 10 Sur 28 Sur 0 965.8 0.5 40
2019-07-24 21:00:00 30.6 9 Sur 35 Sudeste 0 965.3 -0.4 38
2019-07-24 20:00:00 32.5 17 Sudeste 41 Sur 0 965 -1.2 34
2019-07-24 19:00:00 33.5 17 Sudeste 40 Sudeste 0 965.3 -1.1 33
2019-07-24 18:00:00 33.7 19 Sur 41 Sudeste 0 965.7 -1.1 32
2019-07-24 17:00:00 34 13 Sur 36 Sur 0 966.2 -1 33
2019-07-24 16:00:00 34 18 Sur 35 Sur 0 966.4 -0.9 34
2019-07-24 15:00:00 33.1 8 Sur 30 Sur 0 966.8 -0.6 35
2019-07-24 14:00:00 32.6 12 Sur 28 Sudeste 0 967.2 -0.3 38
2019-07-24 13:00:00 32.1 10 Sur 34 Este 0 967.3 -0.1 39
2019-07-24 12:00:00 31.2 9 Sudeste 29 Sudeste 0 967.4 -0.3 40
2019-07-24 11:00:00 29.8 3 Sur 13 Sur 0 967.5 0.1 44
2019-07-24 10:00:00 26.3 0 Calma 6 Este 0 967.4 0.3 57
2019-07-24 09:00:00 23.2 0 Calma 4 Oeste 0 967.7 0.7 61
2019-07-24 08:00:00 19.9 0 Calma 3 Nordeste 0 967.4 0.1 67
2019-07-24 07:00:00 20.1 0 Calma 0 Calma 0 967.1 -0.8 65
2019-07-24 06:00:00 20.6 0 Calma 0 Calma 0 967 -0.9 66
2019-07-24 05:00:00 21.7 0 Calma 2 Sudeste 0 967.3 -0.8 63
2019-07-24 04:00:00 22.2 0 Calma 4 Nordeste 0 967.9 0.1 62
2019-07-24 03:00:00 23.1 0 Calma 9 Sudoeste 0 967.9 -0.3 62
2019-07-24 02:00:00 25.1 4 Sur 15 Sur 0 968.1 0.6 52
2019-07-24 01:00:00 25.6 6 Sur 21 Sudoeste 0 967.8 0.9 51
2019-07-24 00:00:00 26.3 0 Calma 21 Sudeste 0 968.2 1.8 45
2019-07-23 23:00:00 29.2 0 Calma 20 Sudeste 0 967.5 1.4 35
2019-07-23 22:00:00 29.2 3 Este 15 Este 0 966.9 0.4 35
2019-07-23 21:00:00 31.2 0 Calma 18 Sur 0 966.4 0.1 33
2019-07-23 20:00:00 32.6 8 Sudeste 28 Sudoeste 0 966.1 -0.7 32
2019-07-23 19:00:00 33.3 9 Sudoeste 34 Sur 0 966.5 -0.1 31
2019-07-23 18:00:00 33.6 18 Sur 36 Sur 0 966.3 -1.1 31
2019-07-23 17:00:00 34.1 14 Sur 50 Sur 0 966.8 -1.1 32
2019-07-23 16:00:00 34.3 23 Sur 48 Sur 0 966.6 -1.6 33
2019-07-23 15:00:00 34.5 7 Sur 29 Sur 0 967.4 -0.8 35
2019-07-23 14:00:00 33.4 9 Sudeste 26 Sur 0 967.9 -0.5 39
2019-07-23 13:00:00 31.7 13 Sur 28 Sudeste 0 968.2 -0.4 44
2019-07-23 12:00:00 30.1 12 Sudeste 27 Sudeste 0 968.2 -0.5 46
2019-07-23 11:00:00 28.5 12 Sudeste 24 Sur 0 968.4 -0.1 49
2019-07-23 10:00:00 27.9 9 Sudeste 20 Sudeste 0 968.6 0.3 53
2019-07-23 09:00:00 25 9 Sur 23 Sur 0 968.7 0.6 65
2019-07-23 08:00:00 23.1 7 Sur 19 Sur 0 968.5 0.4 70
2019-07-23 07:00:00 23.6 2 Oeste 15 Sur 0 968.3 0.3 66
2019-07-23 06:00:00 22.8 0 Calma 13 Este 0 968.1 0.3 72
2019-07-23 05:00:00 22.5 0 Calma 10 Oeste 0 968.1 -0.3 73
2019-07-23 04:00:00 24.3 2 Noroeste 13 Sudeste 0 968 -1.2 69
2019-07-23 03:00:00 24.7 6 Sur 22 Sudeste 0 967.8 -1.9 70
2019-07-23 02:00:00 23.9 0 Calma 23 Sudeste 0 968.4 -1.1 76
2019-07-23 01:00:00 24 0 Calma 31 Sudeste 0 969.2 0.9 75
2019-07-23 00:00:00 24 5 Sur 28 Sur 0 969.7 2.1 76
2019-07-22 23:00:00 24 12 Sudeste 29 Sudeste 0 969.5 2.3 77
2019-07-22 22:00:00 25.8 11 Este 24 Este 0 968.3 0.8 66
2019-07-22 21:00:00 28.8 6 Este 16 Sudeste 0 967.6 -0.7 52
2019-07-22 20:00:00 30.3 3 Sur 32 Sur 0 967.2 -1.7 49
2019-07-22 19:00:00 30.5 13 Sur 32 Sudeste 0 967.5 -1.8 50
2019-07-22 18:00:00 31.3 6 Sudoeste 26 Sur 0 968.3 -1.4 47
2019-07-22 17:00:00 31.8 10 Sur 29 Sur 0 968.9 -1.4 48
2019-07-22 16:00:00 32.3 8 Sur 31 Sudeste 0 969.3 -1.1 46
2019-07-22 15:00:00 31.8 13 Sur 33 Sudeste 0 969.7 -1 49
2019-07-22 14:00:00 30.9 17 Sudeste 41 Sudeste 0 970.3 -0.2 54
2019-07-22 13:00:00 30.1 17 Sudeste 38 Sur 0 970.4 -0.3 57
2019-07-22 12:00:00 27.6 17 Sur 36 Sudeste 0 970.7 0.2 64
2019-07-22 11:00:00 26.8 15 Sudeste 32 Sudeste 0 970.5 0 67
2019-07-22 10:00:00 25.7 7 Sur 16 Sur 0 970.7 0.4 72
2019-07-22 09:00:00 23.6 2 Noroeste 9 Sudeste 0 970.5 0.3 81
2019-07-22 08:00:00 22.2 0 Calma 5 Sur 0 970.5 0 85
2019-07-22 07:00:00 22.1 0 Calma 9 Noroeste 0 970.3 -0.2 85
2019-07-22 06:00:00 22.2 7 Noroeste 11 Noroeste 0 970.2 -0.6 84
2019-07-22 05:00:00 22.6 3 Noroeste 9 Noroeste 0 970.5 -0.5 81
2019-07-22 04:00:00 22.6 0 Calma 5 Sudoeste 0 970.5 -0.8 80
2019-07-22 03:00:00 23.2 0 Calma 6 Sur 0 970.8 -0.2 79
2019-07-22 02:00:00 23.5 0 Calma 17 Sur 0 971 0.6 78
2019-07-22 01:00:00 23.5 8 Sur 27 Sur 0 971.3 1.7 79
2019-07-22 00:00:00 24.1 12 Sur 36 Sur 0 971 2.8 73
2019-07-21 23:00:00 24.6 21 Sudeste 39 Sur 0 970.4 2.9 68
2019-07-21 22:00:00 26.3 15 Sur 37 Sur 0 969.6 2.2 58
2019-07-21 21:00:00 29.4 11 Sur 24 Sur 0 968.2 0.3 51
2019-07-21 20:00:00 31.6 12 Sudeste 27 Sudeste 0 967.5 -0.6 46
2019-07-21 19:00:00 33.2 14 Sudeste 31 Sudeste 0 967.4 -1.2 44
2019-07-21 18:00:00 34.8 10 Sudeste 26 Sudeste 0 967.9 -1.2 44
2019-07-21 17:00:00 35.2 9 Sudeste 25 Sudeste 0 968.1 -1.4 44
2019-07-21 16:00:00 34.8 11 Sudeste 26 Sur 0 968.6 -1.2 45
2019-07-21 15:00:00 34.6 5 Sudeste 26 Sudeste 0 969.1 -0.6 45
2019-07-21 14:00:00 33.4 2 Sur 17 Sudeste 0 969.5 0 44
2019-07-21 13:00:00 32.2 2 Sudeste 16 Sudeste 0 969.8 0.3 46
2019-07-21 12:00:00 30.8 5 Sudeste 18 Este 0 969.7 0.1 48
2019-07-21 11:00:00 30.1 0 Calma 12 Nordeste 0 969.5 0.3 47
2019-07-21 10:00:00 28 0 Calma 8 Este 0 969.5 0.8 57
2019-07-21 09:00:00 23.6 0 Calma 11 Noroeste 0 969.6 0.9 68
2019-07-21 08:00:00 21.4 0 Calma 8 Nordeste 0 969.2 0.7 72
2019-07-21 07:00:00 21.9 0 Calma 5 Nordeste 0 968.7 -0.1 72
2019-07-21 06:00:00 22.8 0 Calma 12 Noroeste 0 968.7 -0.3 68
2019-07-21 05:00:00 23.7 0 Calma 9 Noroeste 0 968.5 -0.8 67
2019-07-21 04:00:00 23.8 0 Calma 5 Oeste 0 968.8 -0.2 65
2019-07-21 03:00:00 23.8 2 Oeste 13 Sudeste 0 969 0.6 65
2019-07-21 02:00:00 24.5 0 Calma 13 Sur 0 969.3 1.5 63
2019-07-21 01:00:00 25 0 Calma 15 Sur 0 969 2.3 62
2019-07-21 00:00:00 25.3 5 Sur 21 Sur 0 968.4 2.6 59
2019-07-20 23:00:00 26 3 Sur 27 Sur 0 967.8 2.6 57
2019-07-20 22:00:00 29 4 Sur 14 Sur 0 966.7 1.7 49
2019-07-20 21:00:00 32.1 2 Sur 11 Sur 0 965.8 0.8 41
2019-07-20 20:00:00 34.8 5 Sudeste 12 Sudeste 0 965.2 0.1 35
2019-07-20 19:00:00 36.6 0 Calma 14 Oeste 0 965 -0.7 32
2019-07-20 18:00:00 37.1 0 Calma 18 Noroeste 0 965 -1 31
2019-07-20 17:00:00 36.6 4 Oeste 24 Oeste 0 965.1 -1.3 31
2019-07-20 16:00:00 36.2 3 Noroeste 22 Noroeste 0 965.7 -1 32
2019-07-20 15:00:00 35.6 5 Nordeste 19 Nordeste 0 966 -1 34
2019-07-20 14:00:00 33.9 3 Nordeste 18 Noroeste 0 966.4 -0.5 35
2019-07-20 13:00:00 32.5 2 Norte 16 Este 0 966.7 -0.3 38
2019-07-20 12:00:00 31 4 Nordeste 15 Este 0 967 0.2 41
2019-07-20 11:00:00 28.8 3 Este 8 Nordeste 0 966.9 0.7 46
2019-07-20 10:00:00 24.9 0 Calma 3 Sudeste 0 967 0.9 53
2019-07-20 09:00:00 22.9 0 Calma 9 Noroeste 0 966.8 1 56
2019-07-20 08:00:00 23 2 Nordeste 7 Nordeste 0 966.2 0.8 55
2019-07-20 07:00:00 22.4 4 Nordeste 8 Nordeste 0 966.1 0.6 55
2019-07-20 06:00:00 23.2 6 Nordeste 12 Nordeste 0 965.8 0.3 52
2019-07-20 05:00:00 24.7 5 Nordeste 9 Sur 0 965.4 0 50
2019-07-20 04:00:00 24.7 0 Calma 8 Sur 0 965.5 -0.2 50
2019-07-20 03:00:00 25.5 0 Calma 9 Noroeste 0 965.5 0.1 46
2019-07-20 02:00:00 25.8 0 Calma 16 Noroeste 0 965.4 0.4 46
2019-07-20 01:00:00 26 0 Calma 10 Sudoeste 0 965.7 1.3 46
2019-07-20 00:00:00 26.4 0 Calma 16 Sudeste 0 965.4 1.3 46
2019-07-19 23:00:00 27.6 6 Sur 29 Sur 0 965 1 43
2019-07-19 22:00:00 27.9 10 Sur 26 Sur 0 964.4 0.8 41
2019-07-19 21:00:00 28.9 6 Sur 21 Sur 0 964.1 0.1 39
2019-07-19 20:00:00 30.2 6 Sur 24 Sur 0 964 0.1 38
2019-07-19 19:00:00 30.7 11 Sur 33 Sur 0 963.6 -0.8 38
2019-07-19 18:00:00 31.2 5 Sur 32 Sur 0 964 -1.2 38
2019-07-19 17:00:00 31.7 11 Sur 40 Sudeste 0 963.9 -1.9 40
2019-07-19 16:00:00 31.5 21 Sur 44 Sudeste 0 964.4 -1.8 41
2019-07-19 15:00:00 31.1 12 Sur 34 Sur 0 965.2 -1 41
2019-07-19 14:00:00 31.9 6 Sudeste 27 Sudeste 0 965.8 -0.4 40
2019-07-19 13:00:00 30.6 13 Sudeste 34 Sur 0 966.2 -0.3 43
2019-07-19 12:00:00 30.6 17 Sudeste 34 Sudeste 0 966.2 -0.3 43
2019-07-19 11:00:00 29.6 13 Sudeste 32 Sur 0 966.2 -0.3 42
2019-07-19 10:00:00 26 0 Calma 6 Este 0 966.5 -0.1 55
2019-07-19 09:00:00 23.9 0 Calma 7 Oeste 0 966.5 0.2 61
2019-07-19 08:00:00 21.1 3 Oeste 7 Oeste 0 966.5 0.3 67
2019-07-19 07:00:00 21.1 0 Calma 9 Sudoeste 0 966.6 0.4 64
2019-07-19 06:00:00 21.8 0 Calma 18 Sudeste 0 966.3 -0.1 61
2019-07-19 05:00:00 22.5 0 Calma 21 Sur 0 966.2 -0.2 58
2019-07-19 04:00:00 23.3 4 Sudeste 21 Sur 0 966.2 -0.7 55
2019-07-19 03:00:00 24.4 0 Calma 14 Sudeste 0 966.4 -0.3 48
2019-07-19 02:00:00 24.8 3 Oeste 14 Noroeste 0 966.4 0 45
2019-07-19 01:00:00 24.9 3 Noroeste 14 Sudeste 0 966.9 1.1 43
2019-07-19 00:00:00 25.8 3 Sudoeste 27 Sur 0 966.7 1.2 40